SQP1318 UKOO-UKLI
Flight info
| Callsign | SQP1318 |
|---|---|
| Flight time | 0h 58m |
| Altitude | 36000 |
| Route | ODSAN P156 NIROV M991 GOTRA |
| Aircraft | B738/M-SDE2E3FGHIRWXY/LB1 |
Departure
| Time | 2026-04-29 19:14 |
|---|---|
| Airport | Odesa International Airport (UKOO) |
Arrival
| Time | 2026-04-29 20:13 |
|---|---|
| Airport | Ivano-Frankivsk International Airport (UKLI) |
| Time | Latitude | Longitude | Altitude | Speed | Heading |
|---|---|---|---|---|---|
| 2026-04-29 18:53 | 46.44136 | 30.67192 | 172 ft | 0 kts | 259° |
| 2026-04-29 19:01 | 46.44136 | 30.67193 | 167 ft | 1 kts | 259° |
| 2026-04-29 19:01 | 46.44140 | 30.67228 | 173 ft | 4 kts | 257° |
| 2026-04-29 19:01 | 46.44148 | 30.67264 | 172 ft | 4 kts | 238° |
| 2026-04-29 19:02 | 46.44163 | 30.67284 | 172 ft | 2 kts | 171° |
| 2026-04-29 19:02 | 46.44165 | 30.67283 | 172 ft | 0 kts | 169° |
| 2026-04-29 19:04 | 46.44162 | 30.67284 | 172 ft | 2 kts | 169° |
| 2026-04-29 19:04 | 46.44125 | 30.67294 | 172 ft | 9 kts | 169° |
| 2026-04-29 19:05 | 46.44044 | 30.67316 | 172 ft | 15 kts | 169° |
| 2026-04-29 19:05 | 46.43958 | 30.67342 | 172 ft | 9 kts | 159° |
| 2026-04-29 19:05 | 46.43932 | 30.67418 | 172 ft | 9 kts | 77° |
| 2026-04-29 19:05 | 46.43911 | 30.67497 | 172 ft | 9 kts | 142° |
| 2026-04-29 19:06 | 46.43852 | 30.67528 | 172 ft | 9 kts | 166° |
| 2026-04-29 19:06 | 46.43793 | 30.67555 | 172 ft | 9 kts | 162° |
| 2026-04-29 19:06 | 46.43680 | 30.67607 | 172 ft | 8 kts | 162° |
| 2026-04-29 19:07 | 46.43626 | 30.67632 | 172 ft | 8 kts | 162° |
| 2026-04-29 19:07 | 46.43591 | 30.67648 | 172 ft | 8 kts | 162° |
| 2026-04-29 19:07 | 46.43522 | 30.67679 | 172 ft | 8 kts | 165° |
| 2026-04-29 19:07 | 46.43453 | 30.67705 | 172 ft | 13 kts | 165° |
| 2026-04-29 19:08 | 46.43353 | 30.67747 | 172 ft | 17 kts | 161° |
| 2026-04-29 19:08 | 46.43226 | 30.67803 | 172 ft | 20 kts | 163° |
| 2026-04-29 19:08 | 46.43093 | 30.67860 | 172 ft | 20 kts | 163° |
| 2026-04-29 19:08 | 46.42964 | 30.67916 | 172 ft | 19 kts | 163° |
| 2026-04-29 19:09 | 46.42839 | 30.67970 | 172 ft | 18 kts | 163° |
| 2026-04-29 19:09 | 46.42718 | 30.68022 | 172 ft | 18 kts | 163° |
| 2026-04-29 19:09 | 46.42601 | 30.68073 | 172 ft | 17 kts | 163° |
| 2026-04-29 19:09 | 46.42489 | 30.68122 | 172 ft | 17 kts | 163° |
| 2026-04-29 19:10 | 46.42381 | 30.68163 | 172 ft | 16 kts | 166° |
| 2026-04-29 19:10 | 46.42276 | 30.68208 | 172 ft | 15 kts | 163° |
| 2026-04-29 19:10 | 46.42176 | 30.68250 | 172 ft | 15 kts | 165° |
| 2026-04-29 19:10 | 46.42079 | 30.68287 | 172 ft | 14 kts | 165° |
| 2026-04-29 19:11 | 46.41989 | 30.68329 | 172 ft | 13 kts | 162° |
| 2026-04-29 19:11 | 46.41901 | 30.68368 | 172 ft | 13 kts | 163° |
| 2026-04-29 19:11 | 46.41816 | 30.68406 | 172 ft | 13 kts | 163° |
| 2026-04-29 19:11 | 46.41734 | 30.68443 | 172 ft | 12 kts | 163° |
| 2026-04-29 19:12 | 46.41653 | 30.68479 | 172 ft | 12 kts | 163° |
| 2026-04-29 19:12 | 46.41574 | 30.68510 | 172 ft | 12 kts | 180° |
| 2026-04-29 19:12 | 46.41527 | 30.68426 | 172 ft | 11 kts | 248° |
| 2026-04-29 19:12 | 46.41519 | 30.68389 | 172 ft | 11 kts | 255° |
| 2026-04-29 19:13 | 46.41488 | 30.68210 | 172 ft | 11 kts | 256° |
| 2026-04-29 19:13 | 46.41469 | 30.68106 | 172 ft | 10 kts | 256° |
| 2026-04-29 19:13 | 46.41452 | 30.68005 | 172 ft | 10 kts | 256° |
| 2026-04-29 19:13 | 46.41455 | 30.67880 | 174 ft | 17 kts | 297° |
| 2026-04-29 19:14 | 46.41582 | 30.67787 | 175 ft | 33 kts | 344° |
| 2026-04-29 19:14 | 46.42087 | 30.67564 | 172 ft | 117 kts | 343° |
| 2026-04-29 19:14 | 46.43077 | 30.67143 | 424 ft | 165 kts | 344° |
| 2026-04-29 19:14 | 46.44167 | 30.66768 | 1510 ft | 158 kts | 348° |
| 2026-04-29 19:15 | 46.45248 | 30.66415 | 2475 ft | 165 kts | 345° |
| 2026-04-29 19:15 | 46.46376 | 30.65898 | 3292 ft | 173 kts | 342° |
| 2026-04-29 19:15 | 46.47610 | 30.65319 | 3804 ft | 202 kts | 343° |
| 2026-04-29 19:15 | 46.49017 | 30.64669 | 4091 ft | 226 kts | 343° |
| 2026-04-29 19:16 | 46.50551 | 30.63964 | 4744 ft | 236 kts | 342° |
| 2026-04-29 19:16 | 46.52150 | 30.63229 | 5377 ft | 250 kts | 343° |
| 2026-04-29 19:16 | 46.53859 | 30.62465 | 6135 ft | 262 kts | 343° |
| 2026-04-29 19:16 | 46.55642 | 30.61680 | 6962 ft | 271 kts | 342° |
| 2026-04-29 19:17 | 46.57453 | 30.60914 | 8014 ft | 270 kts | 344° |
| 2026-04-29 19:17 | 46.59296 | 30.60307 | 9033 ft | 273 kts | 345° |
| 2026-04-29 19:17 | 46.61159 | 30.59754 | 10003 ft | 276 kts | 345° |
| 2026-04-29 19:17 | 46.63068 | 30.59196 | 10773 ft | 287 kts | 345° |
| 2026-04-29 19:18 | 46.65122 | 30.58584 | 11011 ft | 314 kts | 345° |
| 2026-04-29 19:18 | 46.66581 | 30.58147 | 11222 ft | 329 kts | 345° |
| 2026-04-29 19:18 | 46.69628 | 30.57235 | 12235 ft | 338 kts | 343° |
| 2026-04-29 19:18 | 46.71939 | 30.56543 | 13227 ft | 338 kts | 343° |
| 2026-04-29 19:19 | 46.74251 | 30.55848 | 14156 ft | 340 kts | 342° |
| 2026-04-29 19:19 | 46.76556 | 30.55150 | 14903 ft | 345 kts | 342° |
| 2026-04-29 19:19 | 46.78923 | 30.54428 | 15605 ft | 350 kts | 342° |
| 2026-04-29 19:19 | 46.81329 | 30.53693 | 16338 ft | 355 kts | 341° |
| 2026-04-29 19:20 | 46.83762 | 30.52950 | 17076 ft | 359 kts | 341° |
| 2026-04-29 19:20 | 46.86230 | 30.52195 | 17797 ft | 364 kts | 341° |
| 2026-04-29 19:20 | 46.88726 | 30.51431 | 18490 ft | 369 kts | 341° |
| 2026-04-29 19:20 | 46.91261 | 30.50654 | 19122 ft | 373 kts | 341° |
| 2026-04-29 19:21 | 46.93810 | 30.49874 | 19823 ft | 375 kts | 341° |
| 2026-04-29 19:21 | 46.96376 | 30.49088 | 20523 ft | 377 kts | 341° |
| 2026-04-29 19:21 | 46.98953 | 30.48297 | 21187 ft | 380 kts | 340° |
| 2026-04-29 19:21 | 47.01551 | 30.47498 | 21854 ft | 382 kts | 340° |
| 2026-04-29 19:22 | 47.04161 | 30.46695 | 22480 ft | 385 kts | 340° |
| 2026-04-29 19:22 | 47.06797 | 30.45882 | 23089 ft | 388 kts | 340° |
| 2026-04-29 19:22 | 47.09412 | 30.45076 | 23679 ft | 391 kts | 340° |
| 2026-04-29 19:22 | 47.12090 | 30.44249 | 24199 ft | 394 kts | 340° |
| 2026-04-29 19:23 | 47.14776 | 30.43415 | 24759 ft | 394 kts | 339° |
| 2026-04-29 19:23 | 47.16506 | 30.42653 | 25080 ft | 385 kts | 328° |
| 2026-04-29 19:23 | 47.18837 | 30.40801 | 25639 ft | 379 kts | 323° |
| 2026-04-29 19:23 | 47.21134 | 30.38891 | 26168 ft | 380 kts | 323° |
| 2026-04-29 19:24 | 47.23454 | 30.36981 | 26640 ft | 382 kts | 323° |
| 2026-04-29 19:24 | 47.25787 | 30.35075 | 27121 ft | 384 kts | 323° |
| 2026-04-29 19:24 | 47.28130 | 30.33170 | 27619 ft | 385 kts | 323° |
| 2026-04-29 19:24 | 47.30481 | 30.31264 | 28120 ft | 385 kts | 323° |
| 2026-04-29 19:25 | 47.32832 | 30.29360 | 28568 ft | 387 kts | 323° |
| 2026-04-29 19:25 | 47.35196 | 30.27444 | 28972 ft | 389 kts | 323° |
| 2026-04-29 19:25 | 47.37577 | 30.25513 | 29375 ft | 391 kts | 323° |
| 2026-04-29 19:25 | 47.39964 | 30.23576 | 29806 ft | 392 kts | 323° |
| 2026-04-29 19:26 | 47.42326 | 30.21658 | 30205 ft | 393 kts | 323° |
| 2026-04-29 19:26 | 47.44727 | 30.19705 | 30539 ft | 395 kts | 323° |
| 2026-04-29 19:26 | 47.47144 | 30.17737 | 30767 ft | 400 kts | 323° |
| 2026-04-29 19:26 | 47.49596 | 30.15735 | 30928 ft | 405 kts | 323° |
| 2026-04-29 19:27 | 47.52061 | 30.13725 | 31296 ft | 404 kts | 324° |
| 2026-04-29 19:27 | 47.54520 | 30.11720 | 31700 ft | 404 kts | 324° |
| 2026-04-29 19:27 | 47.56984 | 30.09708 | 31989 ft | 405 kts | 324° |
| 2026-04-29 19:27 | 47.59461 | 30.07681 | 32255 ft | 408 kts | 324° |
| 2026-04-29 19:28 | 47.61947 | 30.05644 | 32578 ft | 408 kts | 324° |
| 2026-04-29 19:28 | 47.64436 | 30.03603 | 32903 ft | 409 kts | 324° |
| 2026-04-29 19:28 | 47.66938 | 30.01548 | 33204 ft | 411 kts | 324° |
| 2026-04-29 19:28 | 47.69441 | 29.99491 | 33495 ft | 412 kts | 324° |
| 2026-04-29 19:29 | 47.71917 | 29.97454 | 33794 ft | 413 kts | 324° |
| 2026-04-29 19:29 | 47.74433 | 29.95381 | 34096 ft | 414 kts | 324° |
| 2026-04-29 19:29 | 47.76950 | 29.93305 | 34393 ft | 415 kts | 325° |
| 2026-04-29 19:30 | 47.82065 | 29.89075 | 34660 ft | 423 kts | 326° |
| 2026-04-29 19:30 | 47.84633 | 29.86952 | 34997 ft | 421 kts | 326° |
| 2026-04-29 19:30 | 47.87189 | 29.84837 | 35290 ft | 420 kts | 326° |
| 2026-04-29 19:30 | 47.89753 | 29.82710 | 35498 ft | 422 kts | 326° |
| 2026-04-29 19:31 | 47.92325 | 29.80573 | 35684 ft | 424 kts | 326° |
| 2026-04-29 19:31 | 47.94906 | 29.78427 | 35896 ft | 425 kts | 326° |
| 2026-04-29 19:31 | 47.97458 | 29.76302 | 36154 ft | 425 kts | 326° |
| 2026-04-29 19:31 | 48.00045 | 29.74147 | 36281 ft | 428 kts | 326° |
| 2026-04-29 19:32 | 48.02660 | 29.71964 | 36289 ft | 431 kts | 326° |
| 2026-04-29 19:32 | 48.07897 | 29.67562 | 36290 ft | 434 kts | 325° |
| 2026-04-29 19:33 | 48.13117 | 29.62828 | 36290 ft | 442 kts | 324° |
| 2026-04-29 19:33 | 48.18383 | 29.57943 | 36292 ft | 447 kts | 324° |
| 2026-04-29 19:34 | 48.23688 | 29.53047 | 36287 ft | 448 kts | 324° |
| 2026-04-29 19:34 | 48.29006 | 29.48153 | 36292 ft | 448 kts | 325° |
| 2026-04-29 19:35 | 48.34334 | 29.43247 | 36295 ft | 448 kts | 325° |
| 2026-04-29 19:35 | 48.39645 | 29.38344 | 36295 ft | 447 kts | 325° |
| 2026-04-29 19:36 | 48.44900 | 29.33477 | 36308 ft | 447 kts | 325° |
| 2026-04-29 19:36 | 48.50212 | 29.28546 | 36307 ft | 448 kts | 325° |
| 2026-04-29 19:37 | 48.55526 | 29.23601 | 36300 ft | 449 kts | 325° |
| 2026-04-29 19:37 | 48.60841 | 29.18643 | 36299 ft | 449 kts | 325° |
| 2026-04-29 19:38 | 48.65796 | 29.13037 | 36295 ft | 443 kts | 309° |
| 2026-04-29 19:38 | 48.69057 | 29.05247 | 36299 ft | 439 kts | 291° |
| 2026-04-29 19:39 | 48.71103 | 28.96538 | 36310 ft | 439 kts | 289° |
| 2026-04-29 19:39 | 48.73119 | 28.87792 | 36304 ft | 440 kts | 289° |
| 2026-04-29 19:40 | 48.75160 | 28.79050 | 36305 ft | 440 kts | 289° |
| 2026-04-29 19:40 | 48.77213 | 28.70296 | 36311 ft | 441 kts | 289° |
| 2026-04-29 19:41 | 48.79265 | 28.61529 | 36305 ft | 441 kts | 289° |
| 2026-04-29 19:41 | 48.81312 | 28.52745 | 36313 ft | 441 kts | 289° |
| 2026-04-29 19:42 | 48.82688 | 28.43758 | 36314 ft | 442 kts | 274° |
| 2026-04-29 19:42 | 48.82936 | 28.34408 | 36314 ft | 443 kts | 273° |
| 2026-04-29 19:43 | 48.83175 | 28.25063 | 36320 ft | 443 kts | 273° |
| 2026-04-29 19:43 | 48.83435 | 28.15718 | 36313 ft | 444 kts | 274° |
| 2026-04-29 19:44 | 48.83703 | 28.06363 | 36320 ft | 444 kts | 274° |
| 2026-04-29 19:44 | 48.83969 | 27.96977 | 36320 ft | 445 kts | 274° |
| 2026-04-29 19:45 | 48.84225 | 27.87637 | 36322 ft | 445 kts | 274° |
| 2026-04-29 19:45 | 48.84474 | 27.78244 | 36323 ft | 445 kts | 274° |
| 2026-04-29 19:46 | 48.84716 | 27.68855 | 36312 ft | 444 kts | 274° |
| 2026-04-29 19:46 | 48.84949 | 27.59490 | 36323 ft | 444 kts | 274° |
| 2026-04-29 19:47 | 48.85172 | 27.50226 | 36316 ft | 439 kts | 274° |
| 2026-04-29 19:47 | 48.85388 | 27.40969 | 35877 ft | 442 kts | 274° |
| 2026-04-29 19:47 | 48.85494 | 27.36310 | 35284 ft | 441 kts | 274° |
| 2026-04-29 19:48 | 48.85597 | 27.31662 | 34649 ft | 438 kts | 274° |
| 2026-04-29 19:48 | 48.85664 | 27.28609 | 34196 ft | 436 kts | 274° |
| 2026-04-29 19:48 | 48.85795 | 27.22480 | 33375 ft | 430 kts | 274° |
| 2026-04-29 19:48 | 48.85890 | 27.17976 | 32863 ft | 424 kts | 274° |
| 2026-04-29 19:49 | 48.85981 | 27.13545 | 32401 ft | 418 kts | 274° |
| 2026-04-29 19:49 | 48.86070 | 27.09170 | 31928 ft | 412 kts | 274° |
| 2026-04-29 19:49 | 48.86155 | 27.04900 | 31470 ft | 406 kts | 274° |
| 2026-04-29 19:49 | 48.86238 | 27.00644 | 31027 ft | 401 kts | 274° |
| 2026-04-29 19:50 | 48.86319 | 26.96435 | 30570 ft | 395 kts | 273° |
| 2026-04-29 19:50 | 48.86397 | 26.92291 | 30067 ft | 390 kts | 273° |
| 2026-04-29 19:50 | 48.86473 | 26.88215 | 29604 ft | 383 kts | 273° |
| 2026-04-29 19:50 | 48.86546 | 26.84198 | 29149 ft | 376 kts | 273° |
| 2026-04-29 19:51 | 48.86616 | 26.80261 | 28702 ft | 370 kts | 273° |
| 2026-04-29 19:51 | 48.86684 | 26.76380 | 28264 ft | 364 kts | 273° |
| 2026-04-29 19:51 | 48.86749 | 26.72565 | 27813 ft | 359 kts | 273° |
| 2026-04-29 19:51 | 48.86812 | 26.68812 | 27425 ft | 352 kts | 273° |
| 2026-04-29 19:52 | 48.86873 | 26.65124 | 27023 ft | 346 kts | 273° |
| 2026-04-29 19:52 | 48.86932 | 26.61507 | 26612 ft | 340 kts | 273° |
| 2026-04-29 19:52 | 48.86989 | 26.57932 | 26214 ft | 336 kts | 272° |
| 2026-04-29 19:52 | 48.87044 | 26.54407 | 25815 ft | 331 kts | 272° |
| 2026-04-29 19:53 | 48.87097 | 26.50932 | 25412 ft | 327 kts | 272° |
| 2026-04-29 19:53 | 48.87148 | 26.47497 | 25016 ft | 323 kts | 272° |
| 2026-04-29 19:53 | 48.87198 | 26.44142 | 24640 ft | 320 kts | 272° |
| 2026-04-29 19:53 | 48.87247 | 26.40778 | 24242 ft | 317 kts | 272° |
| 2026-04-29 19:54 | 48.87339 | 26.34160 | 23435 ft | 310 kts | 272° |
| 2026-04-29 19:54 | 48.87383 | 26.30905 | 23043 ft | 306 kts | 272° |
| 2026-04-29 19:54 | 48.87425 | 26.27692 | 22670 ft | 303 kts | 272° |
| 2026-04-29 19:55 | 48.87466 | 26.24485 | 22265 ft | 303 kts | 272° |
| 2026-04-29 19:55 | 48.87507 | 26.21276 | 21898 ft | 305 kts | 272° |
| 2026-04-29 19:55 | 48.87549 | 26.17991 | 21501 ft | 319 kts | 272° |
| 2026-04-29 19:55 | 48.87593 | 26.14543 | 21097 ft | 331 kts | 272° |
| 2026-04-29 19:56 | 48.87634 | 26.11055 | 20674 ft | 329 kts | 272° |
| 2026-04-29 19:56 | 48.87672 | 26.07643 | 20263 ft | 326 kts | 272° |
| 2026-04-29 19:56 | 48.87710 | 26.04173 | 19865 ft | 323 kts | 272° |
| 2026-04-29 19:56 | 48.87746 | 26.00826 | 19472 ft | 320 kts | 272° |
| 2026-04-29 19:57 | 48.87782 | 25.97449 | 19068 ft | 319 kts | 273° |
| 2026-04-29 19:57 | 48.87805 | 25.95181 | 18814 ft | 317 kts | 273° |
| 2026-04-29 19:57 | 48.87850 | 25.90746 | 18243 ft | 315 kts | 273° |
| 2026-04-29 19:57 | 48.87882 | 25.87422 | 17854 ft | 313 kts | 272° |
| 2026-04-29 19:58 | 48.87914 | 25.84135 | 17460 ft | 310 kts | 272° |
| 2026-04-29 19:58 | 48.87944 | 25.80873 | 17080 ft | 308 kts | 272° |
| 2026-04-29 19:58 | 48.87972 | 25.77628 | 16677 ft | 307 kts | 272° |
| 2026-04-29 19:58 | 48.88001 | 25.74372 | 16303 ft | 309 kts | 272° |
| 2026-04-29 19:59 | 48.88029 | 25.71094 | 15920 ft | 313 kts | 272° |
| 2026-04-29 19:59 | 48.88057 | 25.67754 | 15525 ft | 317 kts | 272° |
| 2026-04-29 19:59 | 48.88083 | 25.64404 | 15128 ft | 316 kts | 272° |
| 2026-04-29 19:59 | 48.88107 | 25.61081 | 14739 ft | 313 kts | 272° |
| 2026-04-29 20:00 | 48.88130 | 25.57785 | 14351 ft | 311 kts | 271° |
| 2026-04-29 20:00 | 48.88152 | 25.54509 | 13946 ft | 309 kts | 271° |
| 2026-04-29 20:00 | 48.88174 | 25.51256 | 13528 ft | 307 kts | 271° |
| 2026-04-29 20:00 | 48.88194 | 25.48065 | 13161 ft | 304 kts | 271° |
| 2026-04-29 20:01 | 48.88213 | 25.44870 | 12762 ft | 302 kts | 271° |
| 2026-04-29 20:01 | 48.88231 | 25.41695 | 12378 ft | 299 kts | 271° |
| 2026-04-29 20:01 | 48.88249 | 25.38539 | 12001 ft | 297 kts | 271° |
| 2026-04-29 20:01 | 48.88265 | 25.35401 | 11626 ft | 296 kts | 271° |
| 2026-04-29 20:02 | 48.88281 | 25.32285 | 11258 ft | 294 kts | 271° |
| 2026-04-29 20:02 | 48.88296 | 25.29182 | 10879 ft | 294 kts | 271° |
| 2026-04-29 20:02 | 48.88309 | 25.26127 | 10695 ft | 286 kts | 271° |
| 2026-04-29 20:02 | 48.88314 | 25.25136 | 10524 ft | 288 kts | 271° |
| 2026-04-29 20:03 | 48.88335 | 25.20044 | 9773 ft | 291 kts | 271° |
| 2026-04-29 20:03 | 48.88346 | 25.16954 | 9281 ft | 294 kts | 271° |
| 2026-04-29 20:03 | 48.88357 | 25.13830 | 8790 ft | 296 kts | 271° |
| 2026-04-29 20:03 | 48.88366 | 25.10697 | 8315 ft | 297 kts | 271° |
| 2026-04-29 20:04 | 48.88375 | 25.07549 | 7846 ft | 298 kts | 271° |
| 2026-04-29 20:04 | 48.88383 | 25.04385 | 7381 ft | 300 kts | 271° |
| 2026-04-29 20:04 | 48.88391 | 25.01211 | 6913 ft | 301 kts | 271° |
| 2026-04-29 20:04 | 48.88398 | 24.98034 | 6446 ft | 301 kts | 271° |
| 2026-04-29 20:05 | 48.88403 | 24.94886 | 5968 ft | 302 kts | 271° |
| 2026-04-29 20:05 | 48.88407 | 24.91701 | 5613 ft | 299 kts | 271° |
| 2026-04-29 20:05 | 48.88411 | 24.88592 | 5339 ft | 288 kts | 271° |
| 2026-04-29 20:05 | 48.88413 | 24.85619 | 5067 ft | 276 kts | 271° |
| 2026-04-29 20:06 | 48.88415 | 24.82731 | 4782 ft | 269 kts | 271° |
| 2026-04-29 20:06 | 48.88417 | 24.79942 | 4504 ft | 259 kts | 271° |
| 2026-04-29 20:06 | 48.88417 | 24.77258 | 4227 ft | 250 kts | 271° |
| 2026-04-29 20:06 | 48.88386 | 24.74662 | 3978 ft | 243 kts | 270° |
| 2026-04-29 20:07 | 48.88340 | 24.72156 | 3743 ft | 235 kts | 270° |
| 2026-04-29 20:07 | 48.88290 | 24.69707 | 3472 ft | 229 kts | 270° |
| 2026-04-29 20:07 | 48.88237 | 24.67329 | 3200 ft | 224 kts | 270° |
| 2026-04-29 20:07 | 48.88184 | 24.65011 | 3038 ft | 213 kts | 270° |
| 2026-04-29 20:08 | 48.87902 | 24.62881 | 2995 ft | 200 kts | 249° |
| 2026-04-29 20:08 | 48.87735 | 24.62253 | 2999 ft | 195 kts | 249° |
| 2026-04-29 20:08 | 48.86947 | 24.59090 | 2995 ft | 190 kts | 251° |
| 2026-04-29 20:08 | 48.86482 | 24.57194 | 3008 ft | 192 kts | 251° |
| 2026-04-29 20:09 | 48.86010 | 24.55249 | 2827 ft | 196 kts | 253° |
| 2026-04-29 20:09 | 48.85932 | 24.53252 | 2592 ft | 188 kts | 286° |
| 2026-04-29 20:09 | 48.86476 | 24.51515 | 2397 ft | 180 kts | 316° |
| 2026-04-29 20:09 | 48.87533 | 24.50650 | 2218 ft | 170 kts | 347° |
| 2026-04-29 20:10 | 48.88701 | 24.50460 | 2081 ft | 174 kts | 9° |
| 2026-04-29 20:10 | 48.89438 | 24.50920 | 2015 ft | 173 kts | 38° |
| 2026-04-29 20:10 | 48.90047 | 24.52366 | 2011 ft | 168 kts | 72° |
| 2026-04-29 20:10 | 48.90247 | 24.54700 | 1980 ft | 172 kts | 102° |
| 2026-04-29 20:11 | 48.89999 | 24.56445 | 1839 ft | 164 kts | 99° |
| 2026-04-29 20:11 | 48.89816 | 24.58110 | 1719 ft | 158 kts | 98° |
| 2026-04-29 20:11 | 48.89702 | 24.59222 | 1752 ft | 157 kts | 97° |
| 2026-04-29 20:11 | 48.89524 | 24.60842 | 1685 ft | 154 kts | 101° |
| 2026-04-29 20:12 | 48.89298 | 24.62455 | 1478 ft | 158 kts | 99° |
| 2026-04-29 20:12 | 48.89113 | 24.64023 | 1333 ft | 145 kts | 101° |
| 2026-04-29 20:12 | 48.88871 | 24.65496 | 1176 ft | 144 kts | 103° |
| 2026-04-29 20:12 | 48.88631 | 24.66957 | 981 ft | 140 kts | 103° |
| 2026-04-29 20:13 | 48.88416 | 24.68276 | 925 ft | 115 kts | 103° |
| 2026-04-29 20:13 | 48.88264 | 24.69222 | 918 ft | 65 kts | 104° |
| 2026-04-29 20:13 | 48.88188 | 24.69673 | 916 ft | 28 kts | 104° |
| 2026-04-29 20:13 | 48.88143 | 24.69948 | 916 ft | 26 kts | 104° |
| 2026-04-29 20:14 | 48.88152 | 24.70105 | 914 ft | 9 kts | 53° |
| 2026-04-29 20:14 | 48.88206 | 24.70156 | 914 ft | 9 kts | 30° |
| 2026-04-29 20:14 | 48.88259 | 24.70207 | 914 ft | 9 kts | 33° |
| 2026-04-29 20:14 | 48.88310 | 24.70259 | 916 ft | 9 kts | 34° |
| 2026-04-29 20:15 | 48.88359 | 24.70310 | 917 ft | 8 kts | 34° |
| 2026-04-29 20:15 | 48.88407 | 24.70359 | 916 ft | 8 kts | 34° |
| 2026-04-29 20:15 | 48.88459 | 24.70357 | 916 ft | 8 kts | 335° |
| 2026-04-29 20:15 | 48.88512 | 24.70329 | 914 ft | 8 kts | 343° |
| 2026-04-29 20:16 | 48.88564 | 24.70306 | 914 ft | 8 kts | 343° |
| 2026-04-29 20:16 | 48.88591 | 24.70294 | 914 ft | 0 kts | 344° |
| 2026-04-29 20:16 | 48.88595 | 24.70295 | 914 ft | 2 kts | 10° |
| 2026-04-29 20:16 | 48.88591 | 24.70336 | 914 ft | 8 kts | 108° |
| 2026-04-29 20:17 | 48.88609 | 24.70460 | 914 ft | 15 kts | 70° |
| 2026-04-29 20:17 | 48.88638 | 24.70583 | 913 ft | 10 kts | 70° |
| 2026-04-29 20:17 | 48.88679 | 24.70596 | 915 ft | 4 kts | 345° |
| 2026-04-29 20:17 | 48.88681 | 24.70596 | 915 ft | 0 kts | 353° |
| 2026-04-29 20:18 | 48.88683 | 24.70595 | 914 ft | 0 kts | 352° |